createdAt,value
2017-10-21T00:00:48.306Z,64.80
2017-10-21T00:03:15.765Z,64.90
2017-10-21T00:05:43.986Z,64.80
2017-10-21T00:08:11.470Z,64.80
2017-10-21T00:10:38.938Z,65.00
2017-10-21T00:13:06.395Z,64.90
2017-10-21T00:15:33.850Z,65.10
2017-10-21T00:18:01.315Z,65.10
2017-10-21T00:20:28.769Z,64.90
2017-10-21T00:22:56.282Z,65.10
2017-10-21T00:25:23.747Z,65.10
2017-10-21T00:27:51.203Z,65.00
2017-10-21T00:30:18.662Z,65.10
2017-10-21T00:32:46.133Z,65.30
2017-10-21T00:35:13.617Z,65.50
2017-10-21T00:37:41.076Z,65.40
2017-10-21T00:40:08.530Z,65.30
2017-10-21T00:42:35.994Z,65.20
2017-10-21T00:45:03.446Z,65.20
2017-10-21T00:47:30.900Z,65.50
2017-10-21T00:49:58.345Z,65.60
2017-10-21T00:52:25.801Z,65.60
2017-10-21T00:54:53.273Z,65.60
2017-10-21T00:57:20.727Z,65.60
2017-10-21T00:59:48.181Z,65.60
2017-10-21T01:02:17.545Z,65.80
2017-10-21T01:04:45.762Z,65.90
2017-10-21T01:07:13.974Z,65.80
2017-10-21T01:09:42.201Z,65.70
2017-10-21T01:12:09.669Z,65.70
2017-10-21T01:14:37.134Z,66.00
2017-10-21T01:17:04.587Z,65.80
2017-10-21T01:19:32.062Z,66.00
2017-10-21T01:21:59.537Z,65.90
2017-10-21T01:24:27.928Z,66.10
2017-10-21T01:26:56.156Z,66.10
2017-10-21T01:29:23.610Z,66.10
2017-10-21T01:31:51.060Z,66.20
2017-10-21T01:34:18.514Z,66.00
2017-10-21T01:36:45.994Z,66.30
2017-10-21T01:39:13.458Z,66.40
2017-10-21T01:41:40.948Z,66.40
2017-10-21T01:44:09.166Z,66.40
2017-10-21T01:46:36.618Z,66.40
2017-10-21T01:49:04.079Z,66.60
2017-10-21T01:51:31.535Z,66.70
2017-10-21T01:53:59.000Z,66.60
2017-10-21T01:56:27.244Z,66.60
2017-10-21T01:58:54.693Z,66.60
2017-10-21T02:01:22.182Z,66.40
2017-10-21T02:03:49.638Z,66.70
2017-10-21T02:06:17.094Z,66.40
2017-10-21T02:08:44.555Z,66.50
2017-10-21T02:11:12.010Z,66.50
2017-10-21T02:13:39.474Z,66.40
2017-10-21T02:16:06.950Z,66.70
2017-10-21T02:18:34.394Z,66.60
2017-10-21T02:21:01.842Z,66.60
2017-10-21T02:23:29.305Z,66.40
2017-10-21T02:25:56.754Z,66.30
2017-10-21T02:28:24.208Z,66.60
2017-10-21T02:30:51.663Z,66.70
2017-10-21T02:33:19.125Z,66.60
2017-10-21T02:35:46.577Z,66.40
2017-10-21T02:38:14.090Z,66.40
2017-10-21T02:40:41.546Z,66.50
2017-10-21T02:43:09.038Z,66.50
2017-10-21T02:45:36.512Z,66.60
2017-10-21T02:48:03.966Z,66.60
2017-10-21T02:50:31.423Z,66.70
2017-10-21T02:52:58.891Z,66.70
2017-10-21T02:55:26.333Z,66.80
2017-10-21T02:57:53.799Z,66.70
2017-10-21T03:00:21.271Z,66.70
2017-10-21T03:02:49.499Z,66.60
2017-10-21T03:05:17.731Z,66.80
2017-10-21T03:07:45.178Z,66.80
2017-10-21T03:10:12.637Z,66.80
2017-10-21T03:12:40.099Z,66.40
2017-10-21T03:15:07.556Z,66.30
2017-10-21T03:17:35.777Z,66.40
2017-10-21T03:20:04.014Z,66.40
2017-10-21T03:22:32.238Z,66.50
2017-10-21T03:24:59.701Z,66.50
2017-10-21T03:27:27.149Z,66.50
2017-10-21T03:29:54.624Z,66.20
2017-10-21T03:32:22.066Z,66.40
2017-10-21T03:34:49.535Z,66.80
2017-10-21T03:37:16.987Z,66.80
2017-10-21T03:39:44.458Z,67.00
2017-10-21T03:42:11.914Z,66.90
2017-10-21T03:44:39.374Z,66.90
2017-10-21T03:47:06.830Z,66.60
2017-10-21T03:49:34.265Z,66.70
2017-10-21T03:52:01.721Z,66.40
2017-10-21T03:54:29.162Z,66.20
2017-10-21T03:56:57.394Z,66.20
2017-10-21T03:59:25.608Z,66.30
2017-10-21T04:01:53.863Z,66.30
2017-10-21T04:04:21.744Z,66.30
2017-10-21T04:06:49.204Z,66.30
2017-10-21T04:09:16.661Z,66.10
2017-10-21T04:11:44.121Z,66.30
2017-10-21T04:14:11.574Z,66.10
2017-10-21T04:16:39.034Z,66.10
2017-10-21T04:19:07.269Z,65.90
2017-10-21T04:21:34.805Z,66.00
2017-10-21T04:24:02.258Z,66.80
2017-10-21T04:26:29.717Z,65.80
2017-10-21T04:28:57.171Z,66.00
2017-10-21T04:31:24.632Z,66.00
2017-10-21T04:33:52.848Z,66.80
2017-10-21T04:36:20.320Z,66.00
2017-10-21T04:38:47.778Z,65.90
2017-10-21T04:41:15.249Z,65.80
2017-10-21T04:43:43.485Z,66.00
2017-10-21T04:46:10.946Z,66.00
2017-10-21T04:48:38.454Z,65.70
2017-10-21T04:51:06.672Z,65.60
2017-10-21T04:53:34.128Z,65.60
2017-10-21T04:56:01.615Z,65.70
2017-10-21T04:58:29.830Z,65.80
2017-10-21T05:00:57.295Z,65.80
2017-10-21T05:03:24.770Z,65.80
2017-10-21T05:05:52.227Z,65.60
2017-10-21T05:08:19.683Z,65.60
2017-10-21T05:10:47.186Z,65.80
2017-10-21T05:13:14.657Z,65.60
2017-10-21T05:15:42.911Z,65.50
2017-10-21T05:18:10.375Z,65.50
2017-10-21T05:20:37.829Z,65.50
2017-10-21T05:23:05.299Z,65.30
2017-10-21T05:25:32.746Z,65.30
2017-10-21T05:28:00.240Z,65.40
2017-10-21T05:30:27.725Z,65.40
2017-10-21T05:32:55.176Z,65.60
2017-10-21T05:35:22.632Z,65.60
2017-10-21T05:37:50.102Z,65.30
2017-10-21T05:40:17.609Z,65.30
2017-10-21T05:42:45.834Z,65.40
2017-10-21T05:45:13.298Z,65.40
2017-10-21T05:47:40.785Z,65.30
2017-10-21T05:50:08.267Z,65.30
2017-10-21T05:52:35.742Z,65.30
2017-10-21T05:55:03.210Z,65.30
2017-10-21T05:57:30.685Z,65.20
2017-10-21T05:59:58.163Z,65.30
2017-10-21T06:02:25.619Z,65.30
2017-10-21T06:04:53.101Z,65.60
2017-10-21T06:07:21.328Z,65.50
2017-10-21T06:09:49.554Z,65.40
2017-10-21T06:12:17.030Z,65.40
2017-10-21T06:14:44.486Z,65.40
2017-10-21T06:17:11.949Z,65.40
2017-10-21T06:19:39.402Z,65.40
2017-10-21T06:22:06.863Z,65.40
2017-10-21T06:24:34.326Z,65.50
2017-10-21T06:27:01.791Z,65.40
2017-10-21T06:29:29.246Z,65.10
2017-10-21T06:31:56.734Z,65.40
2017-10-21T06:34:24.170Z,65.70
2017-10-21T06:36:51.658Z,65.20
2017-10-21T06:39:19.095Z,65.30
2017-10-21T06:41:46.582Z,65.40
2017-10-21T06:44:14.034Z,65.30
2017-10-21T06:46:42.291Z,65.20
2017-10-21T06:49:09.759Z,65.20
2017-10-21T06:51:37.221Z,65.30
2017-10-21T06:54:04.679Z,65.10
2017-10-21T06:56:32.141Z,65.10
2017-10-21T06:58:59.598Z,65.10
2017-10-21T07:01:27.082Z,65.20
2017-10-21T07:03:55.301Z,65.50
2017-10-21T07:06:22.759Z,65.50
2017-10-21T07:08:50.228Z,65.50
2017-10-21T07:11:17.670Z,65.40
2017-10-21T07:13:45.131Z,65.40
2017-10-21T07:16:12.609Z,65.40
2017-10-21T07:18:40.112Z,65.40
2017-10-21T07:21:07.601Z,65.20
2017-10-21T07:23:35.082Z,65.20
2017-10-21T07:26:02.518Z,64.90
2017-10-21T07:28:29.998Z,64.90
2017-10-21T07:30:58.234Z,64.90
2017-10-21T07:33:25.686Z,64.90
2017-10-21T07:35:53.134Z,64.70
2017-10-21T07:38:20.612Z,64.90
2017-10-21T07:40:48.083Z,64.60
2017-10-21T07:43:15.562Z,64.50
2017-10-21T07:45:43.062Z,64.80
2017-10-21T07:48:10.550Z,64.50
2017-10-21T07:50:37.999Z,64.60
2017-10-21T07:53:05.441Z,64.50
2017-10-21T07:55:32.946Z,64.50
2017-10-21T07:58:00.470Z,64.50
2017-10-21T08:00:27.931Z,64.50
2017-10-21T08:02:55.395Z,64.50
2017-10-21T08:05:22.849Z,64.40
2017-10-21T08:07:50.300Z,64.30
2017-10-21T08:10:17.777Z,64.30
2017-10-21T08:12:46.014Z,64.20
2017-10-21T08:15:13.480Z,64.20
2017-10-21T08:17:40.918Z,64.60
2017-10-21T08:20:08.374Z,64.70
2017-10-21T08:22:36.633Z,64.80
2017-10-21T08:25:04.859Z,65.30
2017-10-21T08:27:32.319Z,64.60
2017-10-21T08:29:59.792Z,64.60
2017-10-21T08:32:27.249Z,64.40
2017-10-21T08:34:54.730Z,64.10
2017-10-21T08:40:14.583Z,64.00
2017-10-21T08:42:42.046Z,64.00
2017-10-21T08:45:09.554Z,63.90
2017-10-21T08:47:37.785Z,63.50
2017-10-21T08:50:05.283Z,63.40
2017-10-21T08:52:32.754Z,63.10
2017-10-21T08:55:01.005Z,63.00
2017-10-21T08:57:28.456Z,62.90
2017-10-21T08:59:55.915Z,62.70
2017-10-21T09:02:23.373Z,62.90
2017-10-21T09:04:50.846Z,63.20
2017-10-21T09:07:18.305Z,63.70
2017-10-21T09:09:45.809Z,63.90
2017-10-21T09:12:13.279Z,63.60
2017-10-21T09:14:40.734Z,63.50
2017-10-21T09:17:08.220Z,63.40
2017-10-21T09:19:35.678Z,63.30
2017-10-21T09:22:03.150Z,63.20
2017-10-21T09:24:30.616Z,63.20
2017-10-21T09:26:58.858Z,62.90
2017-10-21T09:29:26.323Z,62.90
2017-10-21T09:31:54.544Z,62.30
2017-10-21T09:34:21.998Z,62.20
2017-10-21T09:36:49.585Z,62.10
2017-10-21T09:39:17.043Z,62.00
2017-10-21T09:41:44.502Z,61.90
2017-10-21T09:44:12.008Z,61.70
2017-10-21T09:46:39.480Z,61.70
2017-10-21T09:49:07.711Z,62.00
2017-10-21T09:51:37.087Z,61.90
2017-10-21T09:54:04.543Z,62.00
2017-10-21T09:56:32.606Z,62.10
2017-10-21T09:59:00.058Z,62.40
2017-10-21T10:01:28.330Z,62.20
2017-10-21T10:03:55.782Z,62.20
2017-10-21T10:06:23.246Z,62.40
2017-10-21T10:08:50.694Z,62.30
2017-10-21T10:11:18.950Z,62.50
2017-10-21T10:13:46.402Z,62.50
2017-10-21T10:16:13.859Z,62.60
2017-10-21T10:18:41.345Z,62.70
2017-10-21T10:21:09.597Z,62.80
2017-10-21T10:23:37.050Z,62.80
2017-10-21T10:26:04.531Z,62.70
2017-10-21T10:28:32.009Z,62.80
2017-10-21T10:30:59.470Z,62.80
2017-10-21T10:33:26.959Z,62.90
2017-10-21T10:35:54.439Z,63.00
2017-10-21T10:38:21.894Z,62.90
2017-10-21T10:40:49.350Z,63.40
2017-10-21T10:43:16.814Z,62.40
2017-10-21T10:45:44.279Z,62.50
2017-10-21T10:48:12.502Z,63.10
2017-10-21T10:50:39.962Z,62.40
2017-10-21T10:53:07.447Z,62.50
2017-10-21T10:55:34.894Z,62.50
2017-10-21T10:58:02.387Z,62.60
2017-10-21T11:00:30.631Z,63.40
2017-10-21T11:02:58.099Z,62.70
2017-10-21T11:05:25.606Z,62.80
2017-10-21T11:07:53.057Z,62.50
2017-10-21T11:10:21.335Z,68.70
2017-10-21T11:12:48.782Z,69.40
2017-10-21T11:15:16.253Z,67.50
2017-10-21T11:17:43.699Z,66.20
2017-10-21T11:20:11.159Z,65.20
2017-10-21T11:22:38.611Z,64.80
2017-10-21T11:25:06.878Z,64.40
2017-10-21T11:27:35.077Z,64.30
2017-10-21T11:30:02.530Z,64.10
2017-10-21T11:32:29.989Z,64.10
2017-10-21T11:34:57.506Z,64.10
2017-10-21T11:37:24.970Z,64.10
2017-10-21T11:39:52.445Z,64.10
2017-10-21T11:42:19.890Z,62.00
2017-10-21T11:44:47.355Z,62.80
2017-10-21T11:47:14.812Z,63.00
2017-10-21T11:49:42.282Z,63.90
2017-10-21T11:52:09.747Z,64.30
2017-10-21T11:54:37.222Z,64.40
2017-10-21T11:57:04.664Z,64.00
2017-10-21T11:59:32.117Z,64.00
2017-10-21T12:02:00.487Z,64.20
2017-10-21T12:04:28.721Z,65.00
2017-10-21T12:06:56.173Z,65.60
2017-10-21T12:09:23.658Z,64.90
2017-10-21T12:11:51.914Z,65.40
2017-10-21T12:14:19.390Z,65.30
2017-10-21T12:16:47.614Z,65.70
2017-10-21T12:19:15.086Z,65.70
2017-10-21T12:21:42.559Z,66.20
2017-10-21T12:24:10.011Z,66.00
2017-10-21T12:26:37.504Z,65.80
2017-10-21T12:29:05.732Z,66.00
2017-10-21T12:31:33.195Z,65.90
2017-10-21T12:34:00.706Z,66.00
2017-10-21T12:36:28.931Z,65.80
2017-10-21T12:38:56.403Z,65.80
2017-10-21T12:41:23.889Z,71.40
2017-10-21T12:43:52.169Z,68.30
2017-10-21T12:46:20.427Z,67.80
2017-10-21T12:48:47.882Z,67.80
2017-10-21T12:51:15.386Z,67.70
2017-10-21T12:53:43.052Z,67.40
2017-10-21T12:56:10.538Z,67.20
2017-10-21T12:58:38.016Z,67.10
2017-10-21T13:01:05.471Z,67.10
2017-10-21T13:03:32.942Z,67.60
2017-10-21T13:06:01.187Z,66.30
2017-10-21T13:08:28.659Z,66.30
2017-10-21T13:10:56.113Z,66.40
2017-10-21T13:13:23.575Z,66.50
2017-10-21T13:15:51.790Z,66.30
2017-10-21T13:18:19.242Z,66.30
2017-10-21T13:20:46.689Z,66.20
2017-10-21T13:23:14.146Z,66.00
2017-10-21T13:25:42.373Z,66.10
2017-10-21T13:28:09.826Z,66.00
2017-10-21T13:30:38.043Z,66.00
2017-10-21T13:33:06.283Z,65.80
2017-10-21T13:35:33.737Z,65.70
2017-10-21T13:38:01.198Z,66.10
2017-10-21T13:40:28.664Z,65.90
2017-10-21T13:42:56.131Z,65.80
2017-10-21T13:45:23.607Z,65.80
2017-10-21T13:47:51.950Z,65.90
2017-10-21T13:50:19.503Z,65.80
2017-10-21T13:52:47.084Z,65.80
2017-10-21T13:55:15.595Z,65.90
2017-10-21T13:57:43.321Z,65.90
2017-10-21T14:00:10.963Z,65.70
2017-10-21T14:02:39.396Z,65.60
2017-10-21T14:05:06.951Z,65.60
2017-10-21T14:07:34.516Z,65.60
2017-10-21T14:10:02.226Z,65.40
2017-10-21T14:12:30.504Z,65.00
2017-10-21T14:14:57.962Z,65.00
2017-10-21T14:17:25.426Z,64.70
2017-10-21T14:19:52.884Z,64.40
2017-10-21T14:22:20.377Z,63.50
2017-10-21T14:24:48.618Z,61.00
2017-10-21T14:27:16.075Z,61.00
2017-10-21T14:29:43.543Z,60.00
2017-10-21T14:32:11.014Z,60.20
2017-10-21T14:34:38.463Z,61.50
2017-10-21T14:37:05.922Z,61.40
2017-10-21T14:39:33.390Z,61.40
2017-10-21T14:42:00.871Z,59.90
2017-10-21T14:44:28.423Z,59.30
2017-10-21T14:46:56.646Z,58.80
2017-10-21T14:49:24.175Z,58.80
2017-10-21T14:51:51.625Z,58.70
2017-10-21T14:54:19.145Z,58.90
2017-10-21T14:56:49.382Z,59.70
2017-10-21T14:59:17.277Z,60.00
2017-10-21T15:01:45.326Z,60.30
2017-10-21T15:04:13.795Z,61.90
2017-10-21T15:06:43.672Z,62.30
2017-10-21T15:09:11.397Z,62.30
2017-10-21T15:11:39.222Z,62.60
2017-10-21T15:14:07.514Z,63.40
2017-10-21T15:16:35.292Z,63.40
2017-10-21T15:19:02.810Z,63.20
2017-10-21T15:21:30.368Z,63.50
2017-10-21T15:23:57.832Z,63.50
2017-10-21T15:26:25.303Z,63.60
2017-10-21T15:28:52.755Z,63.70
2017-10-21T15:31:20.210Z,63.80
2017-10-21T15:33:47.679Z,64.00
2017-10-21T15:36:15.150Z,64.10
2017-10-21T15:38:42.602Z,63.60
2017-10-21T15:41:10.050Z,63.50
2017-10-21T15:43:37.511Z,62.80
2017-10-21T15:46:04.979Z,62.40
2017-10-21T15:48:32.435Z,62.10
2017-10-21T15:50:59.915Z,62.20
2017-10-21T15:53:27.383Z,62.10
2017-10-21T15:55:54.830Z,62.30
2017-10-21T15:58:22.331Z,62.70
2017-10-21T16:00:49.783Z,63.10
2017-10-21T16:03:17.259Z,63.40
2017-10-21T16:05:45.470Z,63.60
2017-10-21T16:08:12.935Z,63.50
2017-10-21T16:10:40.407Z,63.70
2017-10-21T16:13:08.699Z,64.10
2017-10-21T16:15:36.156Z,64.10
2017-10-21T16:18:03.628Z,64.00
2017-10-21T16:20:31.081Z,64.30
2017-10-21T16:22:58.547Z,64.40
2017-10-21T16:25:25.994Z,64.30
2017-10-21T16:27:53.475Z,67.00
2017-10-21T16:30:20.932Z,66.00
2017-10-21T16:32:48.391Z,65.40
2017-10-21T16:35:15.847Z,69.10
2017-10-21T16:37:43.303Z,67.90
2017-10-21T16:40:10.763Z,67.60
2017-10-21T16:42:38.207Z,67.90
2017-10-21T16:45:05.676Z,67.70
2017-10-21T16:47:33.178Z,68.00
2017-10-21T16:50:01.412Z,79.30
2017-10-21T16:52:30.389Z,78.60
2017-10-21T16:54:57.862Z,77.80
2017-10-21T16:57:25.331Z,76.50
2017-10-21T16:59:52.817Z,76.00
2017-10-21T17:02:21.127Z,74.70
2017-10-21T17:04:48.594Z,74.70
2017-10-21T17:07:16.102Z,74.60
2017-10-21T17:09:43.614Z,74.10
2017-10-21T17:12:12.644Z,73.90
2017-10-21T17:14:40.111Z,73.50
2017-10-21T17:17:07.580Z,73.50
2017-10-21T17:19:35.135Z,73.40
2017-10-21T17:22:03.488Z,72.90
2017-10-21T17:24:31.172Z,72.80
2017-10-21T17:26:58.635Z,72.60
2017-10-21T17:29:26.235Z,72.60
2017-10-21T17:31:54.464Z,72.40
2017-10-21T17:34:22.734Z,72.30
2017-10-21T17:36:50.267Z,72.20
2017-10-21T17:39:17.747Z,72.20
2017-10-21T17:41:45.991Z,72.00
2017-10-21T17:44:13.459Z,72.10
2017-10-21T17:46:40.961Z,72.10
2017-10-21T17:49:08.423Z,72.10
2017-10-21T17:51:35.918Z,71.90
2017-10-21T17:54:03.373Z,72.00
2017-10-21T17:56:30.854Z,71.70
2017-10-21T17:58:58.331Z,71.90
2017-10-21T18:01:26.617Z,72.00
2017-10-21T18:03:54.859Z,71.90
2017-10-21T18:06:22.353Z,71.90
2017-10-21T18:08:50.594Z,71.50
2017-10-21T18:11:18.066Z,71.40
2017-10-21T18:13:45.522Z,71.30
2017-10-21T18:16:12.987Z,71.20
2017-10-21T18:18:41.229Z,71.00
2017-10-21T18:21:08.683Z,70.90
2017-10-21T18:23:36.146Z,70.90
2017-10-21T18:26:03.610Z,70.90
2017-10-21T18:28:31.080Z,70.90
2017-10-21T18:30:58.606Z,71.00
2017-10-21T18:33:26.086Z,70.90
2017-10-21T18:35:53.533Z,70.90
2017-10-21T18:38:21.007Z,70.80
2017-10-21T18:40:48.467Z,70.80
2017-10-21T18:43:15.928Z,70.80
2017-10-21T18:45:44.890Z,70.80
2017-10-21T18:48:12.359Z,70.70
2017-10-21T18:50:39.825Z,70.70
2017-10-21T18:53:07.287Z,70.80
2017-10-21T18:55:34.778Z,70.50
2017-10-21T18:58:02.215Z,70.50
2017-10-21T19:00:29.666Z,70.50
2017-10-21T19:02:57.149Z,70.40
2017-10-21T19:05:25.384Z,70.60
2017-10-21T19:07:52.846Z,70.50
2017-10-21T19:10:20.305Z,70.50
2017-10-21T19:12:47.782Z,70.40
2017-10-21T19:15:16.010Z,70.40
2017-10-21T19:17:43.475Z,70.40
2017-10-21T19:20:11.023Z,70.60
2017-10-21T19:22:38.478Z,70.50
2017-10-21T19:25:05.941Z,70.30
2017-10-21T19:27:33.398Z,70.50
2017-10-21T19:30:00.894Z,70.40
2017-10-21T19:32:28.352Z,70.20
2017-10-21T19:34:55.805Z,70.20
2017-10-21T19:37:24.059Z,70.10
2017-10-21T19:39:51.533Z,70.20
2017-10-21T19:42:18.978Z,70.40
2017-10-21T19:44:46.448Z,70.30
2017-10-21T19:47:13.902Z,70.30
2017-10-21T19:49:41.366Z,70.30
2017-10-21T19:52:09.601Z,70.00
2017-10-21T19:54:37.827Z,70.20
2017-10-21T19:57:05.290Z,70.20
2017-10-21T19:59:33.515Z,70.10
2017-10-21T20:02:00.979Z,70.10
2017-10-21T20:04:28.427Z,70.00
2017-10-21T20:06:55.889Z,70.00
2017-10-21T20:09:23.354Z,70.10
2017-10-21T20:11:50.814Z,70.10
2017-10-21T20:14:18.270Z,69.90
2017-10-21T20:16:45.733Z,69.80
2017-10-21T20:19:13.187Z,69.80
2017-10-21T20:21:40.646Z,69.80
2017-10-21T20:24:08.106Z,69.90
2017-10-21T20:26:36.330Z,69.80
2017-10-21T20:29:03.796Z,69.80
2017-10-21T20:31:31.274Z,69.70
2017-10-21T20:33:58.730Z,69.80
2017-10-21T20:36:26.203Z,69.80
2017-10-21T20:38:54.430Z,69.70
2017-10-21T20:41:22.650Z,70.40
2017-10-21T20:43:50.111Z,69.70
2017-10-21T20:46:17.603Z,69.70
2017-10-21T20:48:45.063Z,69.70
2017-10-21T20:51:12.514Z,69.70
2017-10-21T20:53:40.006Z,69.80
2017-10-21T20:56:08.230Z,69.70
2017-10-21T20:58:35.686Z,69.70
2017-10-21T21:01:03.159Z,69.50
2017-10-21T21:03:30.618Z,69.70
2017-10-21T21:05:58.077Z,69.80
2017-10-21T21:08:25.535Z,69.70
2017-10-21T21:10:52.995Z,69.70
2017-10-21T21:13:20.450Z,69.50
2017-10-21T21:15:47.906Z,69.60
2017-10-21T21:18:15.368Z,69.50
2017-10-21T21:20:42.818Z,69.40
2017-10-21T21:23:11.056Z,69.60
2017-10-21T21:25:39.266Z,69.60
2017-10-21T21:28:06.727Z,69.40
2017-10-21T21:30:34.190Z,69.60
2017-10-21T21:33:01.654Z,69.60
2017-10-21T21:35:29.111Z,69.80
2017-10-21T21:37:57.329Z,69.20
2017-10-21T21:40:24.787Z,69.60
2017-10-21T21:42:52.258Z,69.50
2017-10-21T21:45:19.711Z,69.50
2017-10-21T21:47:47.190Z,69.20
2017-10-21T21:50:14.651Z,69.30
2017-10-21T21:52:42.103Z,69.60
2017-10-21T21:55:09.571Z,69.40
2017-10-21T21:57:37.039Z,69.30
2017-10-21T22:00:04.491Z,69.40
2017-10-21T22:02:31.950Z,69.50
2017-10-21T22:04:59.414Z,69.40
2017-10-21T22:07:26.858Z,69.60
2017-10-21T22:09:54.321Z,69.70
2017-10-21T22:12:21.779Z,69.70
2017-10-21T22:14:49.243Z,69.70
2017-10-21T22:17:16.705Z,69.70
2017-10-21T22:19:44.151Z,69.50
2017-10-21T22:22:11.610Z,69.50
2017-10-21T22:24:39.067Z,69.70
2017-10-21T22:27:06.547Z,69.70
2017-10-21T22:29:34.794Z,69.80
2017-10-21T22:32:02.250Z,69.70
2017-10-21T22:34:29.810Z,69.70
2017-10-21T22:36:58.780Z,69.70
2017-10-21T22:39:26.268Z,69.70
2017-10-21T22:41:53.722Z,69.70
2017-10-21T22:44:21.179Z,69.90
2017-10-21T22:46:48.630Z,70.00
2017-10-21T22:49:16.093Z,69.80
2017-10-21T22:51:43.545Z,70.00
2017-10-21T22:54:10.994Z,70.20
2017-10-21T22:56:38.471Z,70.30
2017-10-21T22:59:05.939Z,70.40
2017-10-21T23:01:34.167Z,70.60
2017-10-21T23:04:01.624Z,70.50
2017-10-21T23:06:29.078Z,70.70
2017-10-21T23:08:58.455Z,70.60
2017-10-21T23:11:25.935Z,70.70
2017-10-21T23:13:53.390Z,70.70
2017-10-21T23:16:20.862Z,70.60
2017-10-21T23:18:48.314Z,70.50
2017-10-21T23:21:15.779Z,70.50
2017-10-21T23:23:43.247Z,70.20
2017-10-21T23:26:10.719Z,70.10
2017-10-21T23:28:38.175Z,69.90
2017-10-21T23:31:05.643Z,69.90
2017-10-21T23:33:33.095Z,69.80
2017-10-21T23:36:00.553Z,69.90
2017-10-21T23:38:28.771Z,70.10
2017-10-21T23:40:56.246Z,70.00
2017-10-21T23:43:23.702Z,70.00
2017-10-21T23:45:51.167Z,69.80
2017-10-21T23:48:18.622Z,69.80
2017-10-21T23:50:46.087Z,69.80
2017-10-21T23:53:13.546Z,69.70
2017-10-21T23:55:40.994Z,69.50
2017-10-21T23:58:08.453Z,69.50
